Aviation Digital Data Service (ADDS)

Output produced by METARs form (1040 UTC 23 January 2017)
found at http://www.aviationweather.gov/adds/metars/
 
KDEN 230853Z 2309/2412 32009KT P6SM SCT090 BKN150 
     FM231400 24012KT P6SM BKN080 OVC150 
     FM231900 24012G22KT P6SM BKN080 OVC120 
     FM240200 22012KT P6SM SCT100 BKN150 
     FM240600 25009KT P6SM SCT070 BKN120